Time;durP1;ratioP1;P1;durP2;ratioP2;P2;SDS_P1;SDS_P2;PMS_P1;PMS_P2;Temp;Humidity;BMP_temperature;BMP_pressure;BME280_temperature;BME280_humidity;BME280_pressure;Samples;Min_cycle;Max_cycle;Signal;HPM_P1;HPM_P2
2021/08/07 00:00:58;;;;;;;1.10;0.43;;;;;;;19.75;56.27;101078.66;5033307;28;20040;-59
2021/08/07 00:03:24;;;;;;;1.30;0.30;;;;;;;19.74;57.23;101076.97;5033115;28;20041;-58
2021/08/07 00:05:49;;;;;;;0.52;0.10;;;;;;;19.75;56.88;101075.94;5033367;28;20044;-58
2021/08/07 00:08:15;;;;;;;0.63;0.20;;;;;;;19.74;56.67;101079.69;5031776;28;20021;-58
2021/08/07 00:10:40;;;;;;;1.33;0.40;;;;;;;19.73;58.51;101075.25;5033220;28;20029;-58
2021/08/07 00:13:05;;;;;;;1.50;0.43;;;;;;;19.74;56.88;101076.97;5031517;28;20403;-58
2021/08/07 00:15:31;;;;;;;2.28;0.35;;;;;;;19.73;56.85;101078.00;5032982;28;20384;-59
2021/08/07 00:17:57;;;;;;;0.40;0.20;;;;;;;19.68;56.01;101077.69;5033288;28;20402;-58
2021/08/07 00:20:23;;;;;;;3.03;0.40;;;;;;;19.65;57.21;101069.81;5033154;28;20025;-59
2021/08/07 00:22:48;;;;;;;0.90;0.43;;;;;;;19.73;57.42;101075.25;5033258;28;20045;-58
2021/08/07 00:25:14;;;;;;;1.55;0.45;;;;;;;19.71;55.71;101080.03;5033029;28;20026;-59
2021/08/07 00:27:39;;;;;;;0.52;0.28;;;;;;;19.69;56.94;101079.38;5033255;28;20456;-59
2021/08/07 00:30:06;;;;;;;0.85;0.15;;;;;;;19.68;56.68;101077.69;5033141;28;20026;-59
2021/08/07 00:32:31;;;;;;;1.13;0.30;;;;;;;19.68;56.76;101077.69;5033001;28;20029;-59
2021/08/07 00:34:57;;;;;;;1.30;0.52;;;;;;;19.68;56.04;101078.53;5034859;28;20483;-59
2021/08/07 00:37:23;;;;;;;1.50;0.30;;;;;;;19.64;56.63;101077.16;5037074;28;20033;-59
2021/08/07 00:39:48;;;;;;;1.38;0.30;;;;;;;19.65;57.50;101076.16;5037152;28;20065;-59
2021/08/07 00:42:14;;;;;;;1.65;0.43;;;;;;;19.64;56.63;101076.28;5036805;28;20079;-59
2021/08/07 00:44:39;;;;;;;0.85;0.30;;;;;;;19.66;57.45;101071.53;5037011;28;20025;-59
2021/08/07 00:47:05;;;;;;;0.85;0.20;;;;;;;19.62;57.04;101067.44;5036915;28;20029;-59
2021/08/07 00:49:30;;;;;;;0.35;0.10;;;;;;;19.64;57.62;101073.56;5036735;28;20048;-59
2021/08/07 00:51:55;;;;;;;1.80;0.73;;;;;;;19.63;56.67;101061.81;5036985;28;20368;-59
2021/08/07 00:54:22;;;;;;;1.10;0.30;;;;;;;19.58;56.53;101061.50;5036608;28;20028;-59
2021/08/07 00:56:47;;;;;;;1.65;0.13;;;;;;;19.62;56.47;101060.09;5036629;28;20032;-59
2021/08/07 00:59:12;;;;;;;0.38;0.10;;;;;;;19.56;56.72;101054.50;5035317;28;20460;-58
2021/08/07 01:01:56;;;;;;;0.47;0.20;;;;;;;19.58;57.53;101060.63;5036326;28;20045;-59
2021/08/07 01:04:36;;;;;;;0.63;0.22;;;;;;;19.55;58.09;101056.38;5036611;28;20555;-58
2021/08/07 01:07:13;;;;;;;1.40;0.40;;;;;;;19.61;57.23;101058.41;5036536;28;20036;-59
2021/08/07 01:10:18;;;;;;;0.88;0.10;;;;;;;19.59;56.51;101056.88;5036593;28;20144;-58
2021/08/07 01:13:00;;;;;;;0.98;0.20;;;;;;;19.53;57.88;101053.81;5036383;28;20037;-58
2021/08/07 01:15:28;;;;;;;0.70;0.40;;;;;;;19.57;57.46;101045.31;5036287;28;20511;-59
2021/08/07 01:17:55;;;;;;;0.63;0.20;;;;;;;19.60;57.12;101047.69;5036426;28;20117;-59
2021/08/07 01:20:33;;;;;;;1.13;0.38;;;;;;;19.63;56.80;101047.31;5036274;28;20021;-59
2021/08/07 01:23:20;;;;;;;0.73;0.30;;;;;;;19.62;57.90;101046.47;5036255;28;20064;-59
2021/08/07 01:25:59;;;;;;;0.60;0.13;;;;;;;19.57;56.82;101037.13;5036133;28;20031;-58
2021/08/07 01:28:29;;;;;;;3.08;0.93;;;;;;;19.58;57.07;101036.09;5036186;28;20411;-59
2021/08/07 01:30:55;;;;;;;0.28;0.10;;;;;;;19.59;56.74;101035.91;5036108;28;20479;-59
2021/08/07 01:33:21;;;;;;;0.93;0.40;;;;;;;19.63;57.40;101030.97;5036033;28;20029;-59
2021/08/07 01:35:49;;;;;;;0.57;0.20;;;;;;;19.60;58.23;101025.84;5036017;28;20025;-59
2021/08/07 01:38:15;;;;;;;0.65;0.20;;;;;;;19.56;57.04;101021.78;5035950;28;20119;-59
2021/08/07 01:40:40;;;;;;;1.05;0.47;;;;;;;19.57;58.93;101020.75;5036088;28;20468;-59
2021/08/07 01:43:06;;;;;;;2.17;0.47;;;;;;;19.53;57.11;101018.34;5035719;28;20515;-59
2021/08/07 01:45:32;;;;;;;1.45;0.40;;;;;;;19.52;57.80;101019.38;5035607;28;20034;-58
2021/08/07 01:48:07;;;;;;;1.98;0.50;;;;;;;19.51;57.64;101016.84;5035260;28;20083;-59
2021/08/07 01:50:44;;;;;;;0.80;0.57;;;;;;;19.55;57.61;101006.44;5035755;28;20348;-59
2021/08/07 01:53:17;;;;;;;1.20;0.30;;;;;;;19.51;57.04;101001.31;5035683;28;20407;-59
2021/08/07 01:55:56;;;;;;;0.75;0.20;;;;;;;19.55;57.38;101006.44;5035701;28;20036;-59
2021/08/07 01:58:28;;;;;;;0.47;0.32;;;;;;;19.62;58.31;101010.16;5035491;28;20108;-59
2021/08/07 02:00:55;;;;;;;2.53;0.40;;;;;;;19.55;57.54;101007.31;5034303;28;20017;-59
2021/08/07 02:03:22;;;;;;;1.88;0.40;;;;;;;19.52;58.18;100996.72;5035204;28;20056;-59
2021/08/07 02:05:47;;;;;;;0.90;0.20;;;;;;;19.57;58.24;100993.50;5035413;28;20030;-58
2021/08/07 02:08:14;;;;;;;0.20;0.10;;;;;;;19.56;57.29;100991.78;5035290;28;20056;-59
2021/08/07 02:10:46;;;;;;;0.70;0.60;;;;;;;19.60;56.44;100993.97;5035345;28;20464;-59
2021/08/07 02:13:15;;;;;;;1.15;0.57;;;;;;;19.53;57.12;100987.50;5035145;28;20017;-59
2021/08/07 02:15:40;;;;;;;2.88;0.45;;;;;;;19.53;57.75;100987.50;5035360;28;20064;-59
2021/08/07 02:18:07;;;;;;;1.70;0.20;;;;;;;19.56;56.67;100978.16;5035169;28;20053;-59
2021/08/07 02:20:32;;;;;;;2.47;0.45;;;;;;;19.59;57.27;100975.06;5035155;28;20036;-59
2021/08/07 02:22:58;;;;;;;1.35;0.30;;;;;;;19.57;57.95;100969.78;5035207;28;20025;-59
2021/08/07 02:25:23;;;;;;;1.65;0.38;;;;;;;19.59;56.57;100970.47;5035034;28;20026;-59
2021/08/07 02:27:50;;;;;;;1.85;0.20;;;;;;;19.54;58.32;100961.97;5035221;28;20026;-59
2021/08/07 02:30:15;;;;;;;2.58;0.20;;;;;;;19.55;58.30;100962.81;5034952;28;20021;-59
2021/08/07 02:32:41;;;;;;;0.30;0.20;;;;;;;19.51;58.16;100959.56;5035111;28;20452;-59
2021/08/07 02:35:10;;;;;;;1.40;0.35;;;;;;;19.52;57.45;100953.94;5034971;28;20037;-59
2021/08/07 02:37:36;;;;;;;0.40;0.10;;;;;;;19.48;57.79;100963.50;5034842;28;20029;-59
2021/08/07 02:40:04;;;;;;;2.60;0.20;;;;;;;19.53;57.58;100961.09;5034852;28;20032;-59
2021/08/07 02:42:31;;;;;;;0.77;0.20;;;;;;;19.47;58.28;100956.31;5034602;28;20025;-58
2021/08/07 02:44:57;;;;;;;2.00;0.20;;;;;;;19.49;56.80;100962.47;5034722;28;20526;-59
2021/08/07 02:47:24;;;;;;;0.75;0.10;;;;;;;19.50;56.99;100955.16;5034610;28;20473;-59
2021/08/07 02:49:51;;;;;;;2.75;0.50;;;;;;;19.51;57.48;100952.25;5034733;28;20029;-58
2021/08/07 02:52:17;;;;;;;0.60;0.20;;;;;;;19.51;57.27;100952.25;5034393;28;20021;-58
2021/08/07 02:54:43;;;;;;;0.98;0.30;;;;;;;19.50;56.75;100950.53;5034231;28;20039;-58
2021/08/07 02:57:09;;;;;;;0.90;0.22;;;;;;;19.46;57.13;100951.03;5033311;28;20026;-59
2021/08/07 02:59:34;;;;;;;0.55;0.10;;;;;;;19.55;56.60;100941.00;5034538;28;20096;-59
2021/08/07 03:02:00;;;;;;;1.13;0.30;;;;;;;19.52;56.86;100937.56;5034218;28;20083;-59
2021/08/07 03:04:25;;;;;;;1.30;0.20;;;;;;;19.52;57.87;100937.56;5034299;28;20083;-59
2021/08/07 03:06:51;;;;;;;0.25;0.20;;;;;;;19.51;57.69;100935.88;5034474;28;20029;-59
2021/08/07 03:09:16;;;;;;;0.73;0.30;;;;;;;19.50;56.77;100933.34;5034076;28;20160;-59
2021/08/07 03:11:41;;;;;;;1.75;0.30;;;;;;;19.46;57.02;100938.25;5033974;28;20027;-59
2021/08/07 03:14:07;;;;;;;0.88;0.43;;;;;;;19.47;57.51;100929.06;5034197;28;20021;-59
2021/08/07 03:16:32;;;;;;;0.30;0.20;;;;;;;19.47;57.89;100929.06;5033982;28;20679;-59
2021/08/07 03:18:58;;;;;;;0.60;0.30;;;;;;;19.47;58.01;100929.06;5034105;28;20033;-58
2021/08/07 03:21:23;;;;;;;1.77;0.38;;;;;;;19.47;57.75;100937.22;5034026;28;20025;-59
2021/08/07 03:23:48;;;;;;;1.00;0.40;;;;;;;19.46;57.36;100926.50;5033969;28;20025;-59
2021/08/07 03:26:14;;;;;;;0.40;0.20;;;;;;;19.44;57.66;100923.97;5033788;28;20029;-59
2021/08/07 03:28:39;;;;;;;0.50;0.30;;;;;;;19.46;56.87;100927.34;5033917;28;20490;-59
2021/08/07 03:31:04;;;;;;;0.73;0.25;;;;;;;19.45;57.74;100914.75;5033498;28;20090;-59
2021/08/07 03:33:30;;;;;;;1.00;0.20;;;;;;;19.46;58.13;100919.19;5033905;28;20017;-59
2021/08/07 03:35:55;;;;;;;2.30;0.38;;;;;;;19.50;58.41;100917.81;5033772;28;20038;-59
2021/08/07 03:38:20;;;;;;;1.02;0.40;;;;;;;19.44;57.02;100918.50;5033765;28;20045;-59
2021/08/07 03:40:46;;;;;;;0.60;0.30;;;;;;;19.45;57.60;100914.75;5033507;28;20443;-59
2021/08/07 03:43:13;;;;;;;1.45;0.38;;;;;;;19.44;57.76;100904.88;5031793;28;20029;-59
2021/08/07 03:45:38;;;;;;;1.00;0.30;;;;;;;19.40;58.34;100909.00;5031836;28;20022;-59
2021/08/07 03:48:04;;;;;;;0.90;0.38;;;;;;;19.40;56.69;100908.16;5033448;28;20066;-59
2021/08/07 03:50:29;;;;;;;3.90;0.50;;;;;;;19.43;56.96;100889.53;5033605;28;20476;-59
2021/08/07 03:52:55;;;;;;;0.85;0.43;;;;;;;19.41;58.30;100893.47;5033537;28;20026;-59
2021/08/07 03:55:20;;;;;;;3.60;0.30;;;;;;;19.36;58.18;100898.63;5033561;28;20439;-59
2021/08/07 03:57:47;;;;;;;1.42;0.60;;;;;;;19.33;58.41;100898.97;5033541;28;20045;-59
2021/08/07 04:00:13;;;;;;;0.60;0.30;;;;;;;19.39;57.79;100899.13;5033268;28;20821;-59
2021/08/07 04:02:38;;;;;;;0.17;0.17;;;;;;;20.17;55.77;100891.88;5033216;28;20053;-59
2021/08/07 04:05:04;;;;;;;1.13;0.45;;;;;;;20.75;53.68;100895.84;5033355;28;20039;-59
2021/08/07 04:07:29;;;;;;;0.63;0.30;;;;;;;20.90;53.32;100893.97;5033386;28;20428;-59
2021/08/07 04:09:54;;;;;;;0.55;0.20;;;;;;;21.05;52.00;100881.19;5032895;28;20451;-59
2021/08/07 04:12:20;;;;;;;1.17;0.10;;;;;;;21.12;52.14;100887.56;5033059;28;20022;-59
2021/08/07 04:14:45;;;;;;;0.82;0.35;;;;;;;21.36;53.06;100871.97;5033360;28;20475;-59
2021/08/07 04:17:11;;;;;;;2.28;0.30;;;;;;;21.29;54.77;100869.97;5033154;28;20353;-59
2021/08/07 04:19:36;;;;;;;0.40;0.30;;;;;;;21.39;53.61;100866.13;5033281;28;20036;-59
2021/08/07 04:22:02;;;;;;;0.30;0.20;;;;;;;21.43;52.76;100862.78;5033175;28;20029;-59
2021/08/07 04:24:27;;;;;;;0.75;0.35;;;;;;;21.40;53.39;100859.59;5033106;28;20056;-59
2021/08/07 04:26:53;;;;;;;1.08;0.20;;;;;;;21.41;53.95;100853.09;5033034;28;20030;-59
2021/08/07 04:29:18;;;;;;;1.40;0.13;;;;;;;21.47;55.36;100846.84;5033153;28;20051;-59
2021/08/07 04:31:43;;;;;;;0.35;0.20;;;;;;;21.46;54.07;100839.69;5033160;28;20551;-59
2021/08/07 04:34:09;;;;;;;2.10;0.43;;;;;;;21.45;55.10;100837.97;5032996;28;20063;-59
2021/08/07 04:36:35;;;;;;;0.45;0.30;;;;;;;21.44;56.67;100837.13;5033104;28;20523;-59
2021/08/07 04:39:00;;;;;;;0.63;0.30;;;;;;;21.47;55.09;100838.63;5033100;28;20116;-59
2021/08/07 04:41:26;;;;;;;0.40;0.20;;;;;;;21.48;55.40;100848.53;5032859;28;20087;-59
2021/08/07 04:43:51;;;;;;;0.50;0.30;;;;;;;21.48;56.37;100843.06;5032801;28;20112;-59
2021/08/07 04:46:16;;;;;;;0.45;0.30;;;;;;;21.46;56.29;100846.00;5032792;28;20031;-59
2021/08/07 04:48:42;;;;;;;2.17;0.50;;;;;;;21.53;56.33;100837.88;5032944;28;20514;-59
2021/08/07 04:51:07;;;;;;;0.32;0.13;;;;;;;21.45;56.90;100829.78;5033003;28;20029;-59
2021/08/07 04:53:32;;;;;;;0.10;0.10;;;;;;;21.49;56.74;100829.19;5032922;28;20021;-59
2021/08/07 04:55:58;;;;;;;0.93;0.30;;;;;;;21.55;57.75;100833.91;5032732;28;20025;-59
2021/08/07 04:58:23;;;;;;;1.90;0.43;;;;;;;21.56;56.96;100832.03;5032806;28;20026;-59
2021/08/07 05:00:48;;;;;;;1.50;0.30;;;;;;;21.53;55.91;100824.22;5032841;28;20476;-59
2021/08/07 05:03:13;;;;;;;0.20;0.20;;;;;;;21.51;56.51;100820.81;5032481;28;20046;-59
2021/08/07 05:05:39;;;;;;;1.17;0.10;;;;;;;21.50;57.64;100824.56;5031697;28;20381;-59
2021/08/07 05:08:04;;;;;;;2.15;0.50;;;;;;;21.55;57.91;100824.88;5032720;28;20017;-59
2021/08/07 05:10:29;;;;;;;2.45;0.28;;;;;;;21.57;57.87;100820.03;5032610;28;20029;-59
2021/08/07 05:12:55;;;;;;;0.43;0.13;;;;;;;21.60;56.33;100814.19;5032610;28;20013;-59
2021/08/07 05:15:21;;;;;;;1.08;0.30;;;;;;;21.62;56.37;100810.19;5032795;28;20030;-59
2021/08/07 05:17:46;;;;;;;0.50;0.20;;;;;;;21.63;58.11;100805.56;5032749;28;20025;-59
2021/08/07 05:20:11;;;;;;;3.13;0.70;;;;;;;21.65;57.20;100800.75;5032668;28;20061;-59
2021/08/07 05:22:37;;;;;;;1.40;0.35;;;;;;;21.58;58.35;100792.50;5035116;28;20029;-59
2021/08/07 05:25:04;;;;;;;0.52;0.10;;;;;;;21.60;55.91;100789.56;5035953;28;20021;-59
2021/08/07 05:27:29;;;;;;;1.65;0.50;;;;;;;21.53;57.76;100778.56;5035888;28;20033;-59
2021/08/07 05:29:54;;;;;;;0.57;0.20;;;;;;;21.43;56.10;100779.91;5035841;28;20032;-58
2021/08/07 05:32:20;;;;;;;0.17;0.17;;;;;;;21.40;56.42;100780.28;5035549;28;20025;-59
2021/08/07 05:34:45;;;;;;;0.35;0.20;;;;;;;21.34;56.55;100781.06;5035875;28;20053;-58
2021/08/07 05:37:10;;;;;;;0.40;0.20;;;;;;;21.25;57.21;100783.91;5035851;28;20029;-59
2021/08/07 05:39:36;;;;;;;0.77;0.20;;;;;;;21.32;56.79;100778.50;5035975;28;20064;-59
2021/08/07 05:42:01;;;;;;;0.50;0.20;;;;;;;21.34;57.30;100783.81;5035775;28;20021;-59
2021/08/07 05:44:26;;;;;;;0.80;0.20;;;;;;;21.28;58.38;100778.03;5035724;28;20655;-59
2021/08/07 05:46:52;;;;;;;0.80;0.30;;;;;;;21.28;56.59;100764.38;5035830;28;20071;-59
2021/08/07 05:49:17;;;;;;;0.52;0.20;;;;;;;21.26;57.42;100763.72;5035469;28;20060;-59
2021/08/07 05:51:42;;;;;;;0.73;0.20;;;;;;;21.28;55.45;100761.63;5035667;28;20038;-59
2021/08/07 05:54:08;;;;;;;0.75;0.30;;;;;;;21.29;58.02;100766.06;5035568;28;20022;-59
2021/08/07 05:56:33;;;;;;;1.13;0.13;;;;;;;21.26;56.42;100766.47;5035634;28;20017;-59
2021/08/07 05:58:58;;;;;;;1.42;0.40;;;;;;;21.25;55.73;100764.75;5035527;28;20028;-59
2021/08/07 06:01:24;;;;;;;0.88;0.30;;;;;;;21.26;57.24;100762.88;5035329;28;20053;-70
2021/08/07 06:03:50;;;;;;;0.30;0.20;;;;;;;21.30;59.36;100765.03;5035672;28;20032;-70
2021/08/07 06:06:17;;;;;;;3.20;0.25;;;;;;;21.27;58.13;100759.94;5035622;28;20472;-68
2021/08/07 06:08:43;;;;;;;0.30;0.20;;;;;;;21.29;58.12;100759.75;5035768;28;20392;-68
2021/08/07 06:11:11;;;;;;;1.05;0.30;;;;;;;21.27;59.06;100764.56;5035310;28;20506;-68
2021/08/07 06:13:37;;;;;;;1.13;0.32;;;;;;;21.26;55.70;100752.78;5035799;28;20365;-69
2021/08/07 06:16:02;;;;;;;1.73;0.35;;;;;;;21.27;56.37;100759.09;5035823;28;20097;-69
2021/08/07 06:18:29;;;;;;;0.20;0.10;;;;;;;21.21;56.34;100755.22;5035528;28;20095;-69
2021/08/07 06:20:55;;;;;;;0.32;0.13;;;;;;;21.21;56.43;100760.69;5035458;28;20476;-69
2021/08/07 06:23:20;;;;;;;0.57;0.10;;;;;;;21.28;56.45;100753.44;5035198;28;20021;-69
2021/08/07 06:25:46;;;;;;;1.40;0.20;;;;;;;21.23;56.32;100755.88;5034988;28;20376;-69
2021/08/07 06:28:13;;;;;;;0.43;0.17;;;;;;;21.30;56.75;100754.09;5035269;28;20380;-69
2021/08/07 06:30:43;;;;;;;0.77;0.20;;;;;;;21.31;57.34;100757.66;5035253;28;20411;-68
2021/08/07 06:33:09;;;;;;;0.30;0.13;;;;;;;21.35;55.83;100755.41;5034662;28;20100;-68
2021/08/07 06:35:36;;;;;;;0.85;0.10;;;;;;;21.32;56.62;100757.47;5035159;28;20341;-68
2021/08/07 06:38:02;;;;;;;0.45;0.10;;;;;;;21.32;56.68;100759.38;5035073;28;20440;-68
2021/08/07 06:40:29;;;;;;;0.75;0.30;;;;;;;21.34;56.32;100756.47;5034902;28;20165;-67
2021/08/07 06:42:56;;;;;;;1.30;0.10;;;;;;;21.28;56.43;100712.44;5034836;28;20026;-68
2021/08/07 06:45:22;;;;;;;1.13;0.32;;;;;;;21.29;55.79;100718.75;5034807;28;20029;-69
2021/08/07 06:47:49;;;;;;;0.43;0.15;;;;;;;21.29;55.91;100724.22;5034735;28;20018;-69
2021/08/07 06:50:15;;;;;;;1.40;0.30;;;;;;;21.26;57.68;100719.97;5034896;28;20464;-69
2021/08/07 06:52:41;;;;;;;0.93;0.22;;;;;;;21.23;54.70;100709.41;5034708;28;20026;-68
2021/08/07 06:55:07;;;;;;;0.57;0.17;;;;;;;21.32;55.52;100711.00;5034399;28;20430;-68
2021/08/07 06:57:33;;;;;;;2.22;0.35;;;;;;;21.20;57.29;100714.41;5034773;28;20025;-68
2021/08/07 07:00:04;;;;;;;2.30;0.20;;;;;;;21.25;56.12;100715.56;5033364;28;20117;-66
2021/08/07 07:02:29;;;;;;;1.15;0.40;;;;;;;21.25;57.32;100718.28;5034262;28;20528;-67
2021/08/07 07:04:56;;;;;;;0.80;0.13;;;;;;;21.35;56.55;100711.66;5023961;28;20121;-67
2021/08/07 07:07:22;;;;;;;0.55;0.20;;;;;;;21.32;57.39;100712.88;5014648;28;20453;-67
2021/08/07 07:09:47;;;;;;;0.77;0.10;;;;;;;21.32;56.17;100713.72;5014713;28;20034;-67
2021/08/07 07:12:13;;;;;;;0.30;0.10;;;;;;;21.27;57.84;100708.00;5020097;28;20850;-67
2021/08/07 07:14:39;;;;;;;0.35;0.20;;;;;;;21.30;56.41;100714.97;5034338;28;20021;-67
2021/08/07 07:17:07;;;;;;;0.65;0.20;;;;;;;21.24;55.68;100715.72;5034111;28;20071;-69
2021/08/07 07:19:34;;;;;;;0.40;0.10;;;;;;;21.22;58.08;100724.13;5033053;28;20617;-67
2021/08/07 07:21:59;;;;;;;0.52;0.22;;;;;;;21.27;56.81;100718.94;5034157;28;20491;-66
2021/08/07 07:24:25;;;;;;;0.60;0.28;;;;;;;21.28;56.55;100723.38;5033938;28;20029;-66
2021/08/07 07:26:50;;;;;;;2.15;0.40;;;;;;;21.32;56.52;100730.13;5033869;28;20468;-68
2021/08/07 07:29:15;;;;;;;1.77;0.50;;;;;;;21.25;57.92;100729.22;5034054;28;20341;-68
2021/08/07 07:31:41;;;;;;;0.65;0.22;;;;;;;21.26;56.90;100719.97;5034105;28;20056;-67
2021/08/07 07:34:06;;;;;;;1.33;0.20;;;;;;;21.24;57.05;100721.19;5033953;28;20464;-68
2021/08/07 07:36:32;;;;;;;0.65;0.20;;;;;;;21.32;57.13;100719.19;5033797;28;20108;-67
2021/08/07 07:38:57;;;;;;;0.70;0.10;;;;;;;21.26;56.70;100716.41;5033719;28;20053;-67
2021/08/07 07:41:23;;;;;;;0.43;0.20;;;;;;;21.28;57.45;100717.88;5033801;28;20353;-67
2021/08/07 07:43:50;;;;;;;0.55;0.20;;;;;;;21.31;57.17;100705.72;5033463;28;20068;-66
2021/08/07 07:46:15;;;;;;;0.73;0.30;;;;;;;21.35;56.81;100708.94;5031934;28;20021;-67
2021/08/07 07:48:42;;;;;;;1.27;0.20;;;;;;;21.31;56.58;100703.84;5032215;28;20045;-69
2021/08/07 07:51:08;;;;;;;1.77;0.20;;;;;;;21.28;57.31;100696.03;5032395;28;20033;-67
2021/08/07 07:53:33;;;;;;;1.55;0.30;;;;;;;21.28;56.07;100690.56;5032202;28;20033;-67
2021/08/07 07:55:59;;;;;;;0.35;0.10;;;;;;;21.32;55.74;100685.53;5032190;28;20108;-67
2021/08/07 07:58:24;;;;;;;0.32;0.10;;;;;;;21.34;56.51;100683.47;5033172;28;20049;-66
2021/08/07 08:00:50;;;;;;;1.17;0.32;;;;;;;21.37;57.21;100677.63;5040517;23;20423;-68
2021/08/07 08:03:15;;;;;;;0.35;0.10;;;;;;;21.28;56.94;100676.88;5033416;28;20030;-67
2021/08/07 08:05:41;;;;;;;0.85;0.30;;;;;;;21.30;57.35;100683.00;5033589;28;20056;-67
2021/08/07 08:08:07;;;;;;;0.80;0.10;;;;;;;21.34;57.47;100677.16;5033596;28;20029;-67
2021/08/07 08:10:35;;;;;;;0.70;0.30;;;;;;;21.23;57.36;100682.06;5033105;28;20033;-68
2021/08/07 08:13:01;;;;;;;0.47;0.20;;;;;;;21.24;58.15;100678.31;5033469;28;20021;-67
2021/08/07 08:15:26;;;;;;;0.15;0.10;;;;;;;21.35;57.13;100676.13;5033360;28;20403;-69
2021/08/07 08:17:52;;;;;;;1.48;0.30;;;;;;;21.30;57.18;100677.53;5033535;28;20029;-67
2021/08/07 08:20:17;;;;;;;0.70;0.30;;;;;;;21.23;56.93;100667.53;5033442;28;20029;-68
2021/08/07 08:22:42;;;;;;;0.70;0.10;;;;;;;21.24;57.22;100675.59;5033204;28;20030;-68
2021/08/07 08:25:12;;;;;;;1.17;0.20;;;;;;;21.34;57.26;100677.16;5033439;28;20074;-66
2021/08/07 08:27:38;;;;;;;0.73;0.10;;;;;;;21.26;58.48;100675.38;5033289;28;20030;-66
2021/08/07 08:30:05;;;;;;;1.05;0.28;;;;;;;21.28;57.34;100674.16;5033161;28;20029;-66
2021/08/07 08:32:31;;;;;;;0.20;0.00;;;;;;;21.27;58.16;100672.47;5033216;28;20056;-67
2021/08/07 08:34:56;;;;;;;0.95;0.17;;;;;;;21.35;58.56;100678.84;5033351;28;20059;-68
2021/08/07 08:37:22;;;;;;;0.20;0.10;;;;;;;21.32;57.98;100664.50;5032919;28;20032;-67
2021/08/07 08:39:47;;;;;;;0.17;0.10;;;;;;;21.25;59.01;100669.06;5033453;28;20022;-67
2021/08/07 08:42:13;;;;;;;1.33;0.30;;;;;;;21.26;59.69;100668.03;5033026;28;20045;-68
2021/08/07 08:44:38;;;;;;;0.80;0.20;;;;;;;21.27;59.12;100666.13;5033202;28;20476;-67
2021/08/07 08:47:07;;;;;;;0.25;0.10;;;;;;;21.26;57.87;100670.75;5033113;28;20029;-66
2021/08/07 08:49:34;;;;;;;0.65;0.10;;;;;;;21.30;55.31;100669.31;5033179;28;20033;-68
2021/08/07 08:52:01;;;;;;;0.35;0.05;;;;;;;21.27;57.94;100672.47;5033233;28;20116;-67
2021/08/07 08:54:28;;;;;;;0.88;0.55;;;;;;;21.27;59.53;100658.78;5033295;28;20419;-68
2021/08/07 08:56:54;;;;;;;1.02;0.20;;;;;;;21.26;56.94;100654.34;5036281;28;20033;-67
2021/08/07 08:59:21;;;;;;;0.63;0.20;;;;;;;21.32;58.95;100653.56;5036949;28;20070;-68
2021/08/07 09:01:47;;;;;;;0.60;0.20;;;;;;;21.27;57.76;100647.84;5036646;28;20546;-67
2021/08/07 09:04:12;;;;;;;0.20;0.10;;;;;;;21.30;57.09;100650.19;5036579;28;20112;-66
2021/08/07 09:06:37;;;;;;;1.05;0.20;;;;;;;21.26;58.39;100648.91;5036904;28;20029;-66
2021/08/07 09:09:10;;;;;;;1.02;0.28;;;;;;;21.28;59.10;100644.06;5037001;28;20071;-68
2021/08/07 09:11:51;;;;;;;1.50;0.32;;;;;;;21.27;57.38;100647.84;5036621;28;20026;-67
2021/08/07 09:14:25;;;;;;;1.20;0.30;;;;;;;21.24;58.74;100653.72;5036499;28;20022;-67
2021/08/07 09:16:59;;;;;;;0.52;0.30;;;;;;;21.28;58.47;100655.00;5036724;28;20151;-67
2021/08/07 09:19:46;;;;;;;0.40;0.20;;;;;;;21.25;56.24;100647.19;5036451;28;20468;-66
2021/08/07 09:22:17;;;;;;;0.90;0.40;;;;;;;21.24;56.81;100650.97;5036378;28;20055;-67
2021/08/07 09:25:03;;;;;;;0.75;0.28;;;;;;;21.25;59.39;100657.28;5036520;28;20021;-67
2021/08/07 09:27:34;;;;;;;1.20;0.22;;;;;;;21.29;58.07;100653.97;5036323;28;20049;-66
2021/08/07 09:30:03;;;;;;;1.13;0.52;;;;;;;21.25;58.08;100660.88;5036361;28;20029;-67
2021/08/07 09:32:55;;;;;;;0.40;0.10;;;;;;;21.34;59.17;100660.75;5036142;28;20013;-66
2021/08/07 09:35:31;;;;;;;0.55;0.10;;;;;;;21.26;59.58;100642.56;5035988;28;20105;-67
2021/08/07 09:38:20;;;;;;;0.20;0.20;;;;;;;21.34;57.97;100644.34;5034912;28;20067;-69
2021/08/07 09:40:53;;;;;;;1.15;0.47;;;;;;;21.30;57.91;100639.25;5036258;28;20083;-68
2021/08/07 09:43:24;;;;;;;1.73;0.40;;;;;;;21.33;57.91;100627.06;5035906;28;20023;-66
2021/08/07 09:46:30;;;;;;;0.20;0.10;;;;;;;21.34;56.89;100633.41;5036081;28;20451;-67
2021/08/07 09:48:56;;;;;;;0.38;0.22;;;;;;;21.27;59.82;100628.72;5035719;28;20042;-67
2021/08/07 09:51:29;;;;;;;0.03;0.03;;;;;;;21.29;60.25;100640.28;5035963;28;20120;-67
2021/08/07 09:54:00;;;;;;;0.43;0.20;;;;;;;21.26;56.51;100640.69;5036066;28;20033;-67
2021/08/07 09:56:26;;;;;;;0.20;0.20;;;;;;;21.27;58.12;100645.13;5034599;28;20037;-65
2021/08/07 09:59:08;;;;;;;0.93;0.30;;;;;;;21.25;58.14;100641.72;5035838;28;20028;-66
2021/08/07 10:01:35;;;;;;;0.20;0.10;;;;;;;21.31;59.00;100630.00;5035732;28;20045;-66
2021/08/07 10:04:10;;;;;;;1.13;0.20;;;;;;;21.31;58.54;100629.16;5035491;28;20108;-67
2021/08/07 10:06:39;;;;;;;0.40;0.30;;;;;;;21.26;59.49;100635.22;5035463;28;20080;-66
2021/08/07 10:09:06;;;;;;;0.70;0.20;;;;;;;21.29;59.70;100626.63;5035426;28;20025;-67
2021/08/07 10:11:31;;;;;;;0.73;0.57;;;;;;;21.34;59.51;100619.75;5035390;28;20025;-66
2021/08/07 10:13:58;;;;;;;0.65;0.10;;;;;;;21.29;59.02;100610.22;5035266;28;20072;-68
2021/08/07 10:16:24;;;;;;;1.15;0.32;;;;;;;21.40;57.88;100611.59;5035406;28;20025;-65
2021/08/07 10:18:51;;;;;;;0.10;0.10;;;;;;;21.27;60.30;100612.31;5035553;28;20018;-66
2021/08/07 10:21:18;;;;;;;0.40;0.20;;;;;;;21.23;58.91;100618.34;5035313;28;20108;-67
2021/08/07 10:23:43;;;;;;;0.88;0.30;;;;;;;21.20;57.88;100616.84;5035462;28;20044;-67
2021/08/07 10:26:12;;;;;;;0.80;0.10;;;;;;;21.35;56.75;100614.06;5035500;28;20029;-67
2021/08/07 10:28:43;;;;;;;0.28;0.20;;;;;;;21.25;57.99;100608.94;5035175;28;20043;-67
2021/08/07 10:31:12;;;;;;;1.15;0.40;;;;;;;21.26;57.42;100610.63;5035457;28;20376;-67
2021/08/07 10:33:42;;;;;;;0.63;0.25;;;;;;;21.28;57.34;100607.69;5035177;28;20519;-65
2021/08/07 10:36:08;;;;;;;0.35;0.08;;;;;;;21.30;58.22;100609.16;5033626;28;20048;-67
2021/08/07 10:38:40;;;;;;;0.45;0.30;;;;;;;21.40;60.48;100605.28;5033333;28;20468;-67
2021/08/07 10:41:07;;;;;;;0.70;0.30;;;;;;;21.32;57.03;100608.97;5034939;28;20040;-68
2021/08/07 10:43:36;;;;;;;1.60;0.30;;;;;;;21.34;57.89;100600.59;5033781;28;20060;-66
2021/08/07 10:46:07;;;;;;;0.38;0.20;;;;;;;21.31;57.40;100605.41;5034926;28;20029;-66
2021/08/07 10:48:41;;;;;;;1.05;0.10;;;;;;;21.37;59.24;100600.22;5034896;28;20377;-67
2021/08/07 10:51:19;;;;;;;0.85;0.20;;;;;;;21.25;58.34;100598.00;5034889;28;20032;-65
2021/08/07 10:54:28;;;;;;;1.15;0.10;;;;;;;21.36;57.98;100598.50;5034790;28;20025;-66
2021/08/07 10:56:55;;;;;;;0.43;0.30;;;;;;;21.32;56.87;100596.16;5034611;28;20373;-66
2021/08/07 10:59:24;;;;;;;1.65;0.17;;;;;;;21.37;58.39;100594.72;5034697;28;20021;-67
2021/08/07 11:01:52;;;;;;;0.47;0.25;;;;;;;21.31;57.36;100604.53;5034381;28;20041;-67
2021/08/07 11:04:20;;;;;;;0.70;0.20;;;;;;;21.26;57.49;100596.94;5034299;28;20472;-65
2021/08/07 11:06:49;;;;;;;0.20;0.20;;;;;;;21.29;58.75;100595.69;5034652;28;20033;-66
2021/08/07 11:09:33;;;;;;;0.75;0.22;;;;;;;21.30;56.70;100598.22;5034455;28;20067;-67
2021/08/07 11:12:10;;;;;;;0.35;0.10;;;;;;;21.24;54.94;100599.03;5034670;28;20021;-67
2021/08/07 11:15:28;;;;;;;0.30;0.10;;;;;;;21.36;57.89;100587.56;5034291;28;20422;-67
2021/08/07 11:17:54;;;;;;;0.57;0.13;;;;;;;21.36;56.54;100582.09;5012283;28;20128;-67
2021/08/07 11:20:38;;;;;;;0.28;0.10;;;;;;;21.30;58.97;100579.09;4995140;28;20025;-67
2021/08/07 11:23:06;;;;;;;0.32;0.10;;;;;;;21.35;57.20;100575.78;4995881;28;20381;-69
2021/08/07 11:25:49;;;;;;;0.32;0.15;;;;;;;21.36;55.86;100576.63;5012503;28;20021;-66
2021/08/07 11:28:16;;;;;;;0.47;0.17;;;;;;;21.36;58.63;100571.16;5012222;28;20048;-67